This is the latest recevied weather packets stored in our database for station/object YO6FNF-10. If no packets are shown the sender has not sent any weather packets the latest 10 day(s).
| Time | Temp. | Humidity | Pressure | Rain* | Wind** | Luminosity | Snow |
|---|---|---|---|---|---|---|---|
| 1778167943 | 23.33° C | 38% | 1015 hPa | - | - | - | - |
| 1778167043 | 25° C | 35% | 1014.9 hPa | - | - | - | - |
| 1778166142 | 26.67° C | 30% | 1014.9 hPa | - | - | - | - |
| 1778165242 | 26.11° C | 30% | 1014.9 hPa | - | - | - | - |
| 1778164342 | 26.11° C | 31% | 1014.9 hPa | - | - | - | - |
| 1778163442 | 25.56° C | 30% | 1014.9 hPa | - | - | - | - |
| 1778162542 | 25° C | 30% | 1015 hPa | - | - | - | - |
| 1778161641 | 25° C | 29% | 1015 hPa | - | - | - | - |
| 1778160741 | 25° C | 29% | 1015 hPa | - | - | - | - |
| 1778159841 | 26.11° C | 28% | 1015 hPa | - | - | - | - |
| 1778158941 | 27.22° C | 25% | 1014.9 hPa | - | - | - | - |
| 1778158041 | 27.22° C | 24% | 1015.1 hPa | - | - | - | - |
| 1778157141 | 27.22° C | 24% | 1015.1 hPa | - | - | - | - |
| 1778156240 | 27.78° C | 24% | 1015.3 hPa | - | - | - | - |
| 1778155340 | 28.33° C | 23% | 1015.3 hPa | - | - | - | - |
| 1778154440 | 28.33° C | 22% | 1015.5 hPa | - | - | - | - |
| 1778153540 | 28.89° C | 20% | 1015.5 hPa | - | - | - | - |
| 1778152640 | 29.44° C | 20% | 1015.7 hPa | - | - | - | - |
| 1778151740 | 28.89° C | 21% | 1015.6 hPa | - | - | - | - |
| 1778150839 | 29.44° C | 21% | 1015.8 hPa | - | - | - | - |
| 1778149939 | 28.89° C | 20% | 1016 hPa | - | - | - | - |
| 1778149039 | 28.33° C | 20% | 1016.2 hPa | - | - | - | - |
| 1778148139 | 28.89° C | 24% | 1016.3 hPa | - | - | - | - |
| 1778147239 | 28.89° C | 24% | 1016.5 hPa | - | - | - | - |
| 1778146338 | 26.67° C | 27% | 1016.8 hPa | - | - | - | - |
* Rain since midnight (hover to see other rain measurements)
** Current wind speed in m/s (hover to see current wind gust speed)